Terminal Aerodrome Forecast
Issued by NWS

Home | Current Version | Previous Version | Text Only | Print | Product List | Glossary On
Versions: 1 2 3 4 5 6 7 8 9 10 11 12 13 14
000
FTAK31 PANC 291137
TAFAEN
TAF
PAEN 291137Z 2912/3012 20008KT P6SM FEW090
     FM291800 VRB04KT P6SM SKC
     FM300200 20010KT P6SM SCT090 BKN150
     FM300500 19014G20KT P6SM VCSH BKN080=

USA.gov is the U.S. government's official web portal to all federal, state and local government web resources and services.